createdAt,value
2022-12-12T00:00:58.550Z,11.98
2022-12-12T00:03:29.304Z,11.82
2022-12-12T00:05:57.477Z,13.20
2022-12-12T00:08:25.467Z,12.48
2022-12-12T00:10:53.465Z,11.57
2022-12-12T00:13:21.357Z,11.40
2022-12-12T00:15:50.637Z,11.15
2022-12-12T00:18:18.679Z,11.02
2022-12-12T00:20:46.585Z,11.35
2022-12-12T00:23:15.435Z,13.13
2022-12-12T00:25:43.620Z,10.57
2022-12-12T00:28:11.597Z,10.50
2022-12-12T00:30:39.473Z,9.95
2022-12-12T00:33:08.945Z,11.32
2022-12-12T00:35:36.887Z,9.88
2022-12-12T00:38:04.772Z,10.52
2022-12-12T00:40:32.808Z,11.60
2022-12-12T00:43:00.820Z,10.52
2022-12-12T00:45:28.879Z,9.38
2022-12-12T00:47:56.956Z,9.77
2022-12-12T00:50:26.273Z,11.45
2022-12-12T00:52:54.157Z,10.77
2022-12-12T00:55:22.612Z,9.85
2022-12-12T00:57:50.811Z,9.23
2022-12-12T01:00:20.649Z,10.45
2022-12-12T01:02:49.133Z,8.88
2022-12-12T01:05:17.768Z,9.82
2022-12-12T01:07:47.061Z,10.77
2022-12-12T01:10:15.450Z,10.13
2022-12-12T01:12:43.649Z,9.45
2022-12-12T01:15:12.788Z,9.45
2022-12-12T01:17:40.906Z,9.63
2022-12-12T01:20:16.374Z,9.73
2022-12-12T01:22:45.651Z,9.32
2022-12-12T01:25:14.830Z,9.10
2022-12-12T01:27:42.978Z,8.70
2022-12-12T01:30:14.181Z,10.05
2022-12-12T01:32:42.124Z,8.40
2022-12-12T01:35:11.095Z,9.73
2022-12-12T01:37:42.012Z,8.20
2022-12-12T01:40:17.460Z,9.38
2022-12-12T01:42:46.561Z,8.35
2022-12-12T01:45:51.852Z,8.60
2022-12-12T01:48:20.199Z,9.43
2022-12-12T01:50:48.222Z,9.18
2022-12-12T01:53:18.913Z,9.65
2022-12-12T01:55:49.927Z,9.07
2022-12-12T01:58:18.782Z,9.23
2022-12-12T02:00:47.557Z,9.13
2022-12-12T02:03:15.540Z,8.50
2022-12-12T02:05:47.675Z,9.23
2022-12-12T02:08:17.114Z,8.82
2022-12-12T02:10:45.517Z,8.73
2022-12-12T02:13:19.538Z,8.80
2022-12-12T02:15:57.221Z,8.63
2022-12-12T02:18:35.732Z,8.73
2022-12-12T02:21:15.453Z,9.10
2022-12-12T02:24:12.318Z,9.30
2022-12-12T02:27:11.939Z,7.65
2022-12-12T02:30:13.417Z,10.50
2022-12-12T02:32:54.696Z,9.48
2022-12-12T02:35:32.677Z,8.95
2022-12-12T02:38:08.090Z,9.45
2022-12-12T02:40:44.086Z,10.60
2022-12-12T02:43:18.029Z,8.75
2022-12-12T02:45:50.258Z,9.32
2022-12-12T02:48:26.646Z,10.45
2022-12-12T02:50:56.604Z,10.75
2022-12-12T02:53:25.012Z,10.18
2022-12-12T02:56:03.561Z,9.18
2022-12-12T02:58:32.727Z,8.82
2022-12-12T03:01:14.801Z,10.95
2022-12-12T03:04:11.715Z,9.70
2022-12-12T03:07:27.284Z,10.02
2022-12-12T03:10:04.615Z,9.55
2022-12-12T03:12:42.384Z,9.77
2022-12-12T03:15:17.535Z,9.55
2022-12-12T03:17:55.238Z,10.57
2022-12-12T03:20:29.803Z,9.18
2022-12-12T03:23:01.678Z,10.65
2022-12-12T03:25:35.406Z,8.95
2022-12-12T03:28:06.567Z,9.52
2022-12-12T03:30:40.798Z,10.60
2022-12-12T03:33:17.518Z,11.68
2022-12-12T03:35:51.505Z,9.35
2022-12-12T03:38:24.127Z,8.95
2022-12-12T03:40:55.668Z,9.65
2022-12-12T03:43:26.967Z,10.10
2022-12-12T03:46:00.218Z,11.45
2022-12-12T03:48:30.541Z,12.35
2022-12-12T03:51:04.096Z,11.63
2022-12-12T03:53:37.408Z,12.23
2022-12-12T03:56:08.832Z,9.75
2022-12-12T03:58:41.615Z,10.70
2022-12-12T04:01:12.511Z,9.07
2022-12-12T04:03:49.239Z,10.75
2022-12-12T04:06:27.672Z,11.25
2022-12-12T04:09:16.196Z,10.25
2022-12-12T04:12:07.989Z,10.48
2022-12-12T04:14:52.577Z,10.75
2022-12-12T04:17:25.844Z,11.45
2022-12-12T04:20:17.174Z,9.13
2022-12-12T04:23:09.923Z,10.75
2022-12-12T04:26:05.501Z,10.40
2022-12-12T04:28:35.368Z,9.50
2022-12-12T04:31:05.949Z,9.32
2022-12-12T04:33:41.261Z,8.63
2022-12-12T04:36:11.137Z,8.75
2022-12-12T04:38:42.633Z,8.48
2022-12-12T04:41:12.677Z,9.25
2022-12-12T04:43:41.990Z,10.38
2022-12-12T04:46:14.729Z,9.57
2022-12-12T04:48:50.711Z,10.00
2022-12-12T04:51:26.300Z,8.65
2022-12-12T04:54:00.774Z,9.20
2022-12-12T04:56:31.367Z,8.40
2022-12-12T04:59:00.054Z,9.77
2022-12-12T05:01:36.124Z,10.68
2022-12-12T05:04:09.947Z,9.05
2022-12-12T05:06:44.184Z,10.38
2022-12-12T05:09:14.491Z,10.25
2022-12-12T05:11:43.487Z,9.90
2022-12-12T05:14:12.426Z,9.48
2022-12-12T05:16:44.806Z,10.60
2022-12-12T05:19:12.795Z,9.68
2022-12-12T05:21:40.738Z,7.78
2022-12-12T05:24:09.013Z,9.15
2022-12-12T05:26:38.681Z,9.48
2022-12-12T05:29:07.725Z,8.52
2022-12-12T05:31:36.117Z,8.35
2022-12-12T05:34:04.526Z,10.50
2022-12-12T05:36:32.464Z,8.30
2022-12-12T05:39:00.479Z,8.68
2022-12-12T05:41:28.517Z,7.65
2022-12-12T05:43:57.957Z,8.52
2022-12-12T05:46:26.207Z,8.63
2022-12-12T05:48:54.478Z,8.88
2022-12-12T05:51:22.872Z,8.52
2022-12-12T05:53:50.811Z,10.07
2022-12-12T05:56:19.689Z,8.88
2022-12-12T05:58:47.889Z,8.27
2022-12-12T06:01:17.217Z,8.40
2022-12-12T06:03:45.383Z,9.35
2022-12-12T06:06:13.556Z,9.15
2022-12-12T06:08:41.599Z,10.20
2022-12-12T06:11:10.006Z,9.13
2022-12-12T06:13:39.152Z,13.15
2022-12-12T06:16:08.427Z,10.30
2022-12-12T06:18:38.273Z,7.72
2022-12-12T06:21:08.378Z,9.00
2022-12-12T06:23:38.128Z,9.18
2022-12-12T06:26:06.363Z,8.95
2022-12-12T06:28:34.405Z,8.57
2022-12-12T06:31:04.509Z,9.13
2022-12-12T06:33:35.757Z,8.30
2022-12-12T06:36:07.343Z,8.93
2022-12-12T06:38:36.280Z,12.00
2022-12-12T06:41:07.200Z,9.82
2022-12-12T06:43:35.267Z,7.78
2022-12-12T06:46:03.992Z,8.38
2022-12-12T06:48:33.243Z,8.65
2022-12-12T06:51:06.137Z,8.05
2022-12-12T06:53:35.447Z,8.48
2022-12-12T06:56:07.406Z,8.45
2022-12-12T06:58:35.442Z,7.55
2022-12-12T07:01:03.685Z,7.43
2022-12-12T07:03:31.701Z,7.72
2022-12-12T07:05:59.874Z,10.00
2022-12-12T07:08:28.788Z,9.65
2022-12-12T07:11:03.492Z,9.60
2022-12-12T07:13:31.440Z,10.20
2022-12-12T07:15:59.477Z,11.23
2022-12-12T07:18:27.707Z,10.13
2022-12-12T07:20:55.967Z,9.88
2022-12-12T07:23:23.909Z,10.18
2022-12-12T07:25:52.073Z,11.63
2022-12-12T07:28:21.468Z,11.23
2022-12-12T07:30:50.085Z,11.52
2022-12-12T07:33:18.718Z,10.23
2022-12-12T07:35:46.785Z,11.77
2022-12-12T07:38:15.712Z,10.95
2022-12-12T07:40:43.853Z,11.48
2022-12-12T07:43:11.759Z,10.38
2022-12-12T07:45:44.952Z,11.27
2022-12-12T07:48:14.281Z,10.98
2022-12-12T07:50:43.023Z,11.20
2022-12-12T07:53:11.067Z,10.48
2022-12-12T07:55:40.870Z,11.48
2022-12-12T07:58:08.918Z,10.85
2022-12-12T08:00:36.902Z,10.85
2022-12-12T08:03:06.205Z,10.43
2022-12-12T08:05:34.316Z,10.80
2022-12-12T08:08:02.420Z,9.68
2022-12-12T08:10:30.343Z,10.65
2022-12-12T08:12:58.430Z,10.75
2022-12-12T08:15:26.347Z,10.05
2022-12-12T08:17:54.261Z,9.38
2022-12-12T08:20:23.857Z,10.70
2022-12-12T08:22:51.877Z,11.10
2022-12-12T08:25:19.895Z,10.48
2022-12-12T08:27:47.961Z,11.10
2022-12-12T08:30:16.390Z,10.75
2022-12-12T08:32:44.355Z,11.60
2022-12-12T08:35:12.549Z,10.82
2022-12-12T08:37:42.038Z,12.07
2022-12-12T08:40:11.312Z,11.70
2022-12-12T08:42:39.430Z,11.00
2022-12-12T08:45:08.304Z,10.63
2022-12-12T08:47:36.213Z,9.35
2022-12-12T08:50:06.311Z,10.55
2022-12-12T08:52:34.235Z,10.90
2022-12-12T08:55:03.880Z,10.80
2022-12-12T08:57:31.789Z,11.70
2022-12-12T08:59:59.674Z,11.07
2022-12-12T09:02:27.746Z,10.82
2022-12-12T09:04:55.956Z,9.77
2022-12-12T09:07:24.007Z,9.55
2022-12-12T09:09:51.912Z,9.02
2022-12-12T09:12:21.377Z,9.63
2022-12-12T09:14:49.408Z,9.70
2022-12-12T09:17:17.423Z,8.90
2022-12-12T09:19:45.826Z,8.98
2022-12-12T09:22:13.838Z,8.63
2022-12-12T09:24:41.740Z,9.80
2022-12-12T09:27:09.702Z,9.40
2022-12-12T09:29:39.122Z,8.90
2022-12-12T09:32:08.153Z,8.75
2022-12-12T09:34:37.489Z,7.60
2022-12-12T09:37:05.497Z,9.40
2022-12-12T09:39:33.523Z,8.27
2022-12-12T09:42:11.795Z,8.23
2022-12-12T09:44:41.281Z,7.57
2022-12-12T09:47:16.456Z,9.02
2022-12-12T09:49:48.460Z,7.78
2022-12-12T09:52:17.945Z,7.88
2022-12-12T09:54:46.120Z,8.27
2022-12-12T09:57:25.782Z,8.63
2022-12-12T10:00:00.474Z,8.20
2022-12-12T10:02:41.868Z,8.10
2022-12-12T10:05:20.932Z,9.02
2022-12-12T10:07:58.723Z,8.77
2022-12-12T10:10:31.892Z,8.32
2022-12-12T10:13:02.901Z,8.68
2022-12-12T10:15:36.252Z,8.45
2022-12-12T10:18:08.526Z,7.95
2022-12-12T10:20:43.139Z,8.15
2022-12-12T10:23:19.301Z,9.82
2022-12-12T10:25:51.241Z,9.20
2022-12-12T10:28:21.287Z,9.00
2022-12-12T10:31:05.842Z,8.52
2022-12-12T10:33:47.076Z,7.35
2022-12-12T10:36:22.166Z,8.13
2022-12-12T10:41:38.354Z,6.68
2022-12-12T10:44:15.240Z,7.28
2022-12-12T10:46:48.587Z,6.82
2022-12-12T10:49:18.444Z,7.43
2022-12-12T10:51:49.321Z,6.80
2022-12-12T10:54:20.609Z,6.32
2022-12-12T10:57:24.136Z,8.00
2022-12-12T10:59:54.842Z,7.65
2022-12-12T11:02:37.806Z,8.13
2022-12-12T11:05:16.462Z,8.45
2022-12-12T11:07:46.687Z,7.78
2022-12-12T11:10:36.716Z,9.35
2022-12-12T11:13:16.388Z,7.38
2022-12-12T11:15:50.510Z,6.22
2022-12-12T11:18:22.403Z,7.22
2022-12-12T11:20:52.966Z,7.05
2022-12-12T11:23:24.697Z,8.25
2022-12-12T11:25:57.657Z,8.43
2022-12-12T11:28:28.753Z,8.07
2022-12-12T11:30:57.885Z,8.48
2022-12-12T11:33:32.813Z,7.82
2022-12-12T11:36:04.007Z,8.55
2022-12-12T11:38:36.707Z,8.98
2022-12-12T11:41:07.318Z,8.85
2022-12-12T11:43:37.918Z,8.95
2022-12-12T11:46:08.804Z,8.60
2022-12-12T11:48:44.938Z,10.40
2022-12-12T11:51:12.967Z,10.27
2022-12-12T11:53:43.961Z,7.13
2022-12-12T11:56:25.736Z,7.55
2022-12-12T11:59:03.358Z,7.65
2022-12-12T12:01:41.281Z,6.68
2022-12-12T12:04:24.417Z,5.72
2022-12-12T12:07:09.027Z,5.80
2022-12-12T12:09:45.177Z,6.97
2022-12-12T12:12:17.700Z,6.07
2022-12-12T12:15:19.420Z,6.50
2022-12-12T12:18:00.749Z,6.45
2022-12-12T12:20:39.100Z,6.18
2022-12-12T12:23:16.921Z,5.47
2022-12-12T12:25:53.551Z,6.80
2022-12-12T12:28:46.688Z,6.95
2022-12-12T12:31:23.167Z,6.03
2022-12-12T12:34:03.907Z,6.18
2022-12-12T12:36:41.195Z,6.43
2022-12-12T12:39:20.232Z,5.88
2022-12-12T12:42:02.578Z,6.78
2022-12-12T12:44:40.508Z,6.72
2022-12-12T12:47:21.326Z,6.35
2022-12-12T12:49:53.906Z,5.40
2022-12-12T12:52:27.780Z,5.53
2022-12-12T12:54:58.985Z,6.18
2022-12-12T12:57:31.689Z,5.55
2022-12-12T13:00:04.803Z,6.40
2022-12-12T13:02:46.922Z,6.15
2022-12-12T13:05:20.736Z,6.18
2022-12-12T13:07:57.313Z,7.05
2022-12-12T13:10:28.916Z,5.22
2022-12-12T13:13:00.581Z,5.90
2022-12-12T13:15:33.710Z,6.07
2022-12-12T13:18:04.383Z,5.38
2022-12-12T13:20:35.818Z,5.78
2022-12-12T13:23:32.003Z,5.85
2022-12-12T13:26:06.171Z,5.57
2022-12-12T13:28:38.345Z,4.97
2022-12-12T13:31:39.272Z,4.45
2022-12-12T13:34:09.492Z,4.47
2022-12-12T13:36:40.343Z,5.25
2022-12-12T13:39:26.024Z,5.30
2022-12-12T13:42:01.571Z,5.18
2022-12-12T13:44:41.079Z,4.90
2022-12-12T13:47:34.593Z,4.60
2022-12-12T13:50:07.594Z,4.63
2022-12-12T13:52:36.574Z,6.32
2022-12-12T13:55:24.268Z,5.50
2022-12-12T13:58:07.964Z,5.75
2022-12-12T14:00:36.964Z,5.75
2022-12-12T14:03:38.562Z,5.15
2022-12-12T14:06:19.582Z,4.82
2022-12-12T14:08:50.912Z,4.10
2022-12-12T14:11:31.948Z,6.82
2022-12-12T14:14:09.614Z,5.78
2022-12-12T14:16:38.116Z,6.15
2022-12-12T14:19:21.928Z,6.07
2022-12-12T14:21:50.217Z,5.80
2022-12-12T14:24:54.186Z,6.95
2022-12-12T14:28:10.357Z,5.47
2022-12-12T14:31:14.663Z,7.10
2022-12-12T14:34:17.257Z,6.32
2022-12-12T14:37:28.175Z,5.95
2022-12-12T14:40:03.737Z,5.72
2022-12-12T14:43:19.325Z,6.32
2022-12-12T14:45:36.361Z,6.97
2022-12-12T14:48:26.231Z,5.28
2022-12-12T14:51:02.292Z,5.00
2022-12-12T14:53:35.023Z,6.82
2022-12-12T14:56:08.368Z,6.85
2022-12-12T14:58:42.141Z,8.73
2022-12-12T15:01:10.655Z,7.68
2022-12-12T15:03:42.929Z,8.55
2022-12-12T15:06:31.473Z,8.02
2022-12-12T15:09:16.185Z,8.38
2022-12-12T15:11:44.828Z,8.77
2022-12-12T15:14:23.336Z,9.05
2022-12-12T15:16:56.259Z,8.88
2022-12-12T15:19:28.643Z,8.98
2022-12-12T15:21:58.021Z,8.40
2022-12-12T15:24:27.994Z,10.63
2022-12-12T15:26:58.766Z,9.30
2022-12-12T15:29:30.205Z,10.73
2022-12-12T15:32:03.256Z,8.63
2022-12-12T15:34:40.223Z,9.40
2022-12-12T15:37:26.126Z,10.68
2022-12-12T15:40:25.465Z,10.48
2022-12-12T15:42:56.546Z,10.63
2022-12-12T15:45:32.553Z,9.23
2022-12-12T15:48:01.409Z,10.77
2022-12-12T15:50:35.350Z,11.25
2022-12-12T15:53:07.092Z,12.32
2022-12-12T15:55:36.147Z,12.00
2022-12-12T15:58:04.132Z,11.93
2022-12-12T16:00:37.077Z,10.45
2022-12-12T16:03:19.701Z,10.63
2022-12-12T16:06:04.036Z,10.40
2022-12-12T16:08:39.365Z,10.13
2022-12-12T16:11:31.419Z,10.52
2022-12-12T16:14:01.063Z,9.75
2022-12-12T16:16:45.350Z,10.35
2022-12-12T16:19:32.767Z,10.43
2022-12-12T16:22:03.848Z,9.70
2022-12-12T16:24:31.973Z,10.18
2022-12-12T16:27:01.610Z,10.45
2022-12-12T16:29:31.045Z,9.63
2022-12-12T16:31:59.471Z,12.30
2022-12-12T16:34:27.379Z,10.38
2022-12-12T16:36:55.324Z,10.00
2022-12-12T16:39:23.218Z,8.68
2022-12-12T16:41:51.173Z,11.00
2022-12-12T16:44:19.128Z,10.30
2022-12-12T16:46:48.410Z,11.13
2022-12-12T16:49:16.276Z,11.07
2022-12-12T16:51:44.263Z,9.63
2022-12-12T16:54:17.266Z,11.38
2022-12-12T16:56:52.320Z,10.63
2022-12-12T16:59:20.283Z,11.25
2022-12-12T17:01:49.570Z,12.10
2022-12-12T17:04:23.412Z,13.40
2022-12-12T17:06:51.845Z,11.50
2022-12-12T17:09:19.826Z,12.93
2022-12-12T17:11:47.761Z,15.60
2022-12-12T17:14:20.802Z,13.38
2022-12-12T17:16:50.358Z,12.90
2022-12-12T17:19:18.353Z,14.18
2022-12-12T17:21:46.676Z,19.15
2022-12-12T17:24:16.270Z,22.73
2022-12-12T17:26:44.305Z,18.80
2022-12-12T17:29:12.239Z,13.73
2022-12-12T17:31:41.018Z,12.38
2022-12-12T17:34:11.096Z,11.70
2022-12-12T17:36:39.022Z,12.20
2022-12-12T17:39:07.033Z,14.05
2022-12-12T17:41:34.981Z,13.10
2022-12-12T17:44:03.932Z,12.73
2022-12-12T17:46:32.301Z,12.27
2022-12-12T17:49:01.848Z,12.50
2022-12-12T17:51:31.262Z,12.57
2022-12-12T17:54:00.171Z,10.70
2022-12-12T17:56:28.859Z,15.18
2022-12-12T17:58:56.940Z,13.63
2022-12-12T18:01:27.559Z,16.83
2022-12-12T18:03:56.143Z,17.05
2022-12-12T18:06:25.971Z,17.58
2022-12-12T18:08:55.519Z,16.88
2022-12-12T18:11:26.952Z,19.58
2022-12-12T18:13:57.408Z,19.30
2022-12-12T18:16:27.399Z,17.75
2022-12-12T18:18:57.546Z,14.63
2022-12-12T18:24:17.229Z,14.95
2022-12-12T18:26:45.449Z,14.20
2022-12-12T18:29:14.721Z,15.43
2022-12-12T18:31:42.678Z,14.23
2022-12-12T18:34:10.885Z,15.52
2022-12-12T18:36:39.554Z,13.68
2022-12-12T18:39:08.010Z,14.13
2022-12-12T18:41:37.696Z,13.05
2022-12-12T18:44:07.380Z,13.98
2022-12-12T18:46:42.256Z,14.75
2022-12-12T18:49:13.760Z,11.10
2022-12-12T18:51:42.295Z,14.07
2022-12-12T18:54:15.259Z,12.65
2022-12-12T18:56:46.079Z,10.02
2022-12-12T18:59:14.939Z,13.10
2022-12-12T19:01:43.479Z,11.50
2022-12-12T19:04:17.475Z,12.00
2022-12-12T19:06:49.108Z,13.50
2022-12-12T19:09:19.231Z,12.20
2022-12-12T19:11:48.955Z,11.13
2022-12-12T19:14:17.948Z,12.63
2022-12-12T19:16:46.168Z,11.45
2022-12-12T19:19:15.160Z,13.10
2022-12-12T19:21:43.601Z,12.13
2022-12-12T19:24:12.752Z,13.68
2022-12-12T19:26:43.672Z,13.80
2022-12-12T19:29:15.020Z,13.88
2022-12-12T19:31:43.341Z,12.55
2022-12-12T19:34:13.731Z,12.95
2022-12-12T19:36:42.372Z,12.80
2022-12-12T19:39:12.518Z,12.70
2022-12-12T19:41:40.631Z,14.50
2022-12-12T19:44:12.618Z,16.52
2022-12-12T19:46:43.393Z,14.88
2022-12-12T19:49:13.582Z,15.65
2022-12-12T19:51:42.830Z,15.15
2022-12-12T19:54:14.085Z,16.63
2022-12-12T19:56:42.605Z,18.90
2022-12-12T19:59:13.195Z,17.40
2022-12-12T20:01:43.137Z,19.10
2022-12-12T20:04:16.531Z,20.55
2022-12-12T20:06:46.261Z,18.25
2022-12-12T20:09:16.285Z,16.27
2022-12-12T20:11:45.358Z,15.48
2022-12-12T20:14:14.358Z,15.23
2022-12-12T20:16:44.145Z,16.20
2022-12-12T20:19:12.319Z,17.08
2022-12-12T20:24:32.862Z,15.55
2022-12-12T20:27:02.995Z,14.65
2022-12-12T20:29:31.524Z,13.30
2022-12-12T20:32:01.679Z,17.00
2022-12-12T20:34:30.306Z,16.02
2022-12-12T20:36:58.725Z,15.32
2022-12-12T20:39:26.833Z,14.77
2022-12-12T20:41:56.613Z,14.75
2022-12-12T20:44:25.448Z,14.20
2022-12-12T20:46:53.999Z,14.15
2022-12-12T20:49:24.766Z,16.00
2022-12-12T20:51:56.012Z,15.63
2022-12-12T20:54:25.313Z,15.88
2022-12-12T20:56:53.838Z,15.27
2022-12-12T20:59:21.916Z,13.88
2022-12-12T21:01:50.050Z,15.32
2022-12-12T21:04:18.296Z,12.25
2022-12-12T21:06:49.757Z,13.00
2022-12-12T21:09:24.380Z,13.65
2022-12-12T21:11:53.862Z,13.40
2022-12-12T21:14:22.112Z,13.98
2022-12-12T21:16:50.317Z,14.77
2022-12-12T21:19:19.723Z,14.27
2022-12-12T21:21:49.172Z,11.45
2022-12-12T21:24:18.862Z,11.55
2022-12-12T21:26:47.997Z,11.63
2022-12-12T21:29:16.468Z,12.85
2022-12-12T21:31:51.101Z,14.20
2022-12-12T21:34:21.795Z,12.85
2022-12-12T21:36:53.600Z,11.02
2022-12-12T21:39:23.127Z,13.45
2022-12-12T21:41:51.516Z,11.68
2022-12-12T21:44:20.295Z,11.50
2022-12-12T21:46:48.887Z,12.45
2022-12-12T21:49:30.486Z,10.52
2022-12-12T21:52:01.127Z,11.20
2022-12-12T21:54:30.200Z,9.77
2022-12-12T21:56:59.054Z,11.52
2022-12-12T21:59:27.638Z,9.85
2022-12-12T22:01:57.176Z,11.45
2022-12-12T22:04:25.393Z,10.65
2022-12-12T22:06:53.518Z,11.35
2022-12-12T22:09:22.842Z,11.65
2022-12-12T22:11:51.799Z,11.70
2022-12-12T22:14:22.179Z,13.13
2022-12-12T22:16:50.363Z,16.13
2022-12-12T22:19:18.696Z,16.30
2022-12-12T22:21:47.998Z,13.55
2022-12-12T22:24:16.343Z,13.48
2022-12-12T22:26:47.262Z,12.98
2022-12-12T22:29:17.105Z,14.73
2022-12-12T22:31:46.218Z,14.38
2022-12-12T22:34:16.919Z,13.70
2022-12-12T22:36:46.486Z,14.63
2022-12-12T22:39:16.184Z,11.68
2022-12-12T22:41:46.185Z,12.05
2022-12-12T22:44:16.715Z,12.70
2022-12-12T22:46:45.959Z,12.25
2022-12-12T22:49:15.425Z,12.20
2022-12-12T22:51:43.910Z,14.27
2022-12-12T22:54:12.316Z,12.25
2022-12-12T22:56:41.390Z,12.27
2022-12-12T22:59:13.785Z,11.93
2022-12-12T23:01:42.428Z,12.52
2022-12-12T23:04:14.182Z,11.52
2022-12-12T23:06:43.030Z,12.15
2022-12-12T23:09:15.325Z,10.63
2022-12-12T23:11:44.739Z,11.50
2022-12-12T23:14:16.679Z,13.27
2022-12-12T23:16:45.241Z,13.95
2022-12-12T23:19:15.945Z,11.27
2022-12-12T23:21:44.787Z,11.57
2022-12-12T23:24:13.035Z,10.73
2022-12-12T23:26:41.556Z,11.57
2022-12-12T23:29:12.666Z,11.57
2022-12-12T23:31:42.029Z,11.18
2022-12-12T23:34:13.800Z,11.27
2022-12-12T23:36:42.253Z,11.68
2022-12-12T23:39:12.274Z,11.45
2022-12-12T23:41:40.426Z,10.68
2022-12-12T23:44:09.034Z,11.38
2022-12-12T23:46:37.208Z,10.75
2022-12-12T23:49:09.018Z,13.25
2022-12-12T23:51:39.523Z,11.88
2022-12-12T23:54:10.010Z,12.85
2022-12-12T23:56:38.817Z,10.93
2022-12-12T23:59:07.328Z,10.95
